San Francisco, California
Traffic Map
Current Weather Conditions
San Francisco, California
Few Clouds
Few Clouds
18°
Feels Like: 18°
Wind Chill: 18° Ceiling: Unl
Heat Index: 18° Visibility: 10mi
Dew Point: 14° Wind: 0mph
Humidity: 78% Direction: ° ()
Pressure: 30.07in Gusts: 0mph
Raw Report DataKSFO 210656Z 00000KT 10SM FEW024 18/14 A3007 RMK AO2 SLP181 T01780139
Traffic Incident Summary
Active as of:
Severity:
Category:
InformationThere was an issue retrieving the traffic information for this location. Please try a different location or try again shortly.
Advertisements
Track Severe Weather on mobile